Time;durP1;ratioP1;P1;durP2;ratioP2;P2;SDS_P1;SDS_P2;PMS_P1;PMS_P2;Temp;Humidity;BMP_temperature;BMP_pressure;BME280_temperature;BME280_humidity;BME280_pressure;Samples;Min_cycle;Max_cycle;Signal;HPM_P1;HPM_P2
2022/04/15 00:01:17;;;;;;;22.58;12.57;;;;;;;;;;5121489;27;20031;-93
2022/04/15 00:03:43;;;;;;;21.80;12.00;;;;;;;;;;5139575;27;20019;-93
2022/04/15 00:06:10;;;;;;;21.80;11.30;;;;;;;;;;5121851;27;20428;-94
2022/04/15 00:08:36;;;;;;;22.40;12.13;;;;;;;;;;5139585;27;20065;-94
2022/04/15 00:11:03;;;;;;;24.98;12.82;;;;;;;;;;5139630;27;20046;-94
2022/04/15 00:13:31;;;;;;;22.83;12.52;;;;;;;;;;5139821;27;20023;-94
2022/04/15 00:15:57;;;;;;;26.05;13.27;;;;;;;;;;5139739;27;20015;-94
2022/04/15 00:18:24;;;;;;;22.85;12.45;;;;;;;;;;5120449;27;20030;-93
2022/04/15 00:20:54;;;;;;;21.10;11.90;;;;;;;;;;5139586;27;20366;-92
2022/04/15 00:23:24;;;;;;;23.85;12.13;;;;;;;;;;5121034;27;20027;-93
2022/04/15 00:25:50;;;;;;;23.80;12.95;;;;;;;;;;5121367;27;20035;-94
2022/04/15 00:28:16;;;;;;;24.10;12.18;;;;;;;;;;5121267;27;20443;-95
2022/04/15 00:30:42;;;;;;;22.77;11.98;;;;;;;;;;5121228;27;20030;-93
2022/04/15 00:33:08;;;;;;;24.02;12.75;;;;;;;;;;5139493;27;20110;-94
2022/04/15 00:35:35;;;;;;;25.40;13.20;;;;;;;;;;5139287;27;20098;-94
2022/04/15 00:38:01;;;;;;;24.95;13.00;;;;;;;;;;5139120;27;20023;-95
2022/04/15 00:40:27;;;;;;;24.70;13.07;;;;;;;;;;5139083;27;20023;-94
2022/04/15 00:42:53;;;;;;;24.70;12.40;;;;;;;;;;5138921;27;20027;-93
2022/04/15 00:45:19;;;;;;;20.67;12.57;;;;;;;;;;5139156;27;20124;-93
2022/04/15 00:47:53;;;;;;;23.15;12.55;;;;;;;;;;5139139;27;20033;-94
2022/04/15 00:50:29;;;;;;;20.67;12.68;;;;;;;;;;5139162;27;20088;-94
2022/04/15 00:52:58;;;;;;;21.73;12.40;;;;;;;;;;5138997;27;20093;-95
2022/04/15 00:55:25;;;;;;;22.00;11.90;;;;;;;;;;5138859;27;20043;-94
2022/04/15 00:57:58;;;;;;;22.83;12.82;;;;;;;;;;5139120;27;20054;-95
2022/04/15 01:00:25;;;;;;;23.58;12.60;;;;;;;;;;5138756;27;20107;-94
2022/04/15 01:02:52;;;;;;;24.45;12.68;;;;;;;;;;5138878;27;20503;-94
2022/04/15 01:05:18;;;;;;;21.33;13.18;;;;;;;;;;5138780;27;20031;-94
2022/04/15 01:07:51;;;;;;;27.05;12.95;;;;;;;;;;5138665;28;20020;-95
2022/04/15 01:10:18;;;;;;;24.65;13.20;;;;;;;;;;5139047;28;20019;-95
2022/04/15 01:12:45;;;;;;;25.35;13.43;;;;;;;;;;5138838;27;20064;-95
2022/04/15 01:15:16;;;;;;;27.20;15.15;;;;;;;;;;5138594;27;20023;-94
2022/04/15 01:17:42;;;;;;;24.52;15.02;;;;;;;;;;5138548;27;20023;-95
2022/04/15 01:20:09;;;;;;;24.25;15.32;;;;;;;;;;5138509;28;20019;-95
2022/04/15 01:22:38;;;;;;;25.58;16.40;;;;;;;;;;5120473;27;20030;-95
2022/04/15 01:25:06;;;;;;;21.95;15.93;;;;;;;;;;5120486;27;20401;-94
2022/04/15 01:27:36;;;;;;;25.05;15.18;;;;;;;;;;5138890;28;20019;-94
2022/04/15 01:30:03;;;;;;;21.50;15.18;;;;;;;;;;5139897;27;20030;-93
2022/04/15 01:32:29;;;;;;;25.67;14.85;;;;;;;;;;5124804;27;20015;-94
2022/04/15 01:34:55;;;;;;;24.17;15.13;;;;;;;;;;5142822;27;20102;-94
2022/04/15 01:37:23;;;;;;;25.52;14.63;;;;;;;;;;5124398;27;20027;-94
2022/04/15 01:39:49;;;;;;;23.58;14.93;;;;;;;;;;5142457;27;20416;-94
2022/04/15 01:42:15;;;;;;;24.55;15.88;;;;;;;;;;5142877;27;20043;-93
2022/04/15 01:44:42;;;;;;;27.58;17.70;;;;;;;;;;5142738;27;20110;-94
2022/04/15 01:47:08;;;;;;;27.58;16.60;;;;;;;;;;5142461;27;20031;-93
2022/04/15 01:49:34;;;;;;;28.17;15.60;;;;;;;;;;5142439;27;20081;-94
2022/04/15 01:52:01;;;;;;;27.35;15.75;;;;;;;;;;5123832;27;20031;-94
2022/04/15 01:54:30;;;;;;;29.55;17.55;;;;;;;;;;5124126;27;20022;-95
2022/04/15 01:56:56;;;;;;;28.38;17.50;;;;;;;;;;5142303;27;20375;-93
2022/04/15 01:59:22;;;;;;;26.77;16.67;;;;;;;;;;5142144;27;20027;-93
2022/04/15 02:01:49;;;;;;;28.35;17.42;;;;;;;;;;5142315;27;20031;-93
2022/04/15 02:04:15;;;;;;;34.05;19.08;;;;;;;;;;5123954;27;20032;-93
2022/04/15 02:06:41;;;;;;;33.00;19.65;;;;;;;;;;5142006;27;20030;-93
2022/04/15 02:09:07;;;;;;;32.90;18.73;;;;;;;;;;5142036;27;20079;-94
2022/04/15 02:11:34;;;;;;;30.98;18.58;;;;;;;;;;5141975;27;20019;-93
2022/04/15 02:14:00;;;;;;;32.13;18.00;;;;;;;;;;5123800;27;20031;-93
2022/04/15 02:16:26;;;;;;;29.73;18.48;;;;;;;;;;5141793;27;20408;-94
2022/04/15 02:18:52;;;;;;;32.70;18.98;;;;;;;;;;5123702;27;20037;-94
2022/04/15 02:21:18;;;;;;;33.58;19.13;;;;;;;;;;5141804;27;20028;-94
2022/04/15 02:23:44;;;;;;;32.72;18.55;;;;;;;;;;5141696;27;20019;-93
2022/04/15 02:26:10;;;;;;;33.22;19.60;;;;;;;;;;5141937;27;20042;-95
2022/04/15 02:28:36;;;;;;;37.55;20.65;;;;;;;;;;5141530;27;20402;-95
2022/04/15 02:31:02;;;;;;;30.77;18.50;;;;;;;;;;5123454;27;20020;-94
2022/04/15 02:33:28;;;;;;;36.70;20.83;;;;;;;;;;5141469;27;20015;-96
2022/04/15 02:35:55;;;;;;;37.40;19.63;;;;;;;;;;5123170;27;20022;-94
2022/04/15 02:38:21;;;;;;;36.22;20.58;;;;;;;;;;5141343;27;20027;-93
2022/04/15 02:40:47;;;;;;;36.05;20.45;;;;;;;;;;5140789;27;20404;-93
2022/04/15 02:43:14;;;;;;;41.22;20.23;;;;;;;;;;5123378;27;20061;-92
2022/04/15 02:45:40;;;;;;;35.00;19.95;;;;;;;;;;5140997;27;20384;-93
2022/04/15 02:48:06;;;;;;;34.15;20.45;;;;;;;;;;5141503;27;20034;-93
2022/04/15 02:50:32;;;;;;;38.20;20.85;;;;;;;;;;5123182;27;20046;-96
2022/04/15 02:53:01;;;;;;;35.90;19.98;;;;;;;;;;5141123;27;20026;-95
2022/04/15 02:55:27;;;;;;;32.55;19.73;;;;;;;;;;5141045;27;20035;-93
2022/04/15 02:57:53;;;;;;;35.47;20.13;;;;;;;;;;5122797;27;20031;-94
2022/04/15 03:00:20;;;;;;;31.35;20.15;;;;;;;;;;5141069;27;20026;-93
2022/04/15 03:02:46;;;;;;;38.75;20.60;;;;;;;;;;5123009;27;20024;-94
2022/04/15 03:05:12;;;;;;;31.45;20.13;;;;;;;;;;5140964;27;20024;-94
2022/04/15 03:07:39;;;;;;;32.38;21.00;;;;;;;;;;5140800;27;20047;-93
2022/04/15 03:10:06;;;;;;;33.38;20.10;;;;;;;;;;5140600;27;20023;-95
2022/04/15 03:12:39;;;;;;;34.75;21.08;;;;;;;;;;5140690;27;20385;-95
2022/04/15 03:15:06;;;;;;;32.67;20.55;;;;;;;;;;5140502;27;20030;-93
2022/04/15 03:17:32;;;;;;;31.80;19.88;;;;;;;;;;5122921;27;20019;-94
2022/04/15 03:19:58;;;;;;;35.70;20.67;;;;;;;;;;5141144;27;20015;-93
2022/04/15 03:22:24;;;;;;;33.13;20.52;;;;;;;;;;5140579;27;20431;-95
2022/04/15 03:24:51;;;;;;;37.03;20.88;;;;;;;;;;5140683;27;20064;-95
2022/04/15 03:27:17;;;;;;;33.55;19.10;;;;;;;;;;5122283;27;20023;-93
2022/04/15 03:29:43;;;;;;;36.15;19.10;;;;;;;;;;5140430;27;20401;-94
2022/04/15 03:32:10;;;;;;;29.17;18.50;;;;;;;;;;5140633;27;20023;-94
2022/04/15 03:34:39;;;;;;;29.02;19.00;;;;;;;;;;5140361;27;20080;-95
2022/04/15 03:37:06;;;;;;;34.45;19.50;;;;;;;;;;5140390;27;20015;-93
2022/04/15 03:39:32;;;;;;;38.28;19.63;;;;;;;;;;5122554;27;20027;-95
2022/04/15 03:41:58;;;;;;;32.95;18.83;;;;;;;;;;5140140;27;20019;-93
2022/04/15 03:44:24;;;;;;;29.08;17.92;;;;;;;;;;5122057;27;20037;-93
2022/04/15 03:46:51;;;;;;;30.55;17.88;;;;;;;;;;5140465;27;20098;-93
2022/04/15 03:49:17;;;;;;;31.25;17.90;;;;;;;;;;5121931;27;20023;-93
2022/04/15 03:51:43;;;;;;;28.40;17.58;;;;;;;;;;5139787;27;20031;-93
2022/04/15 03:54:09;;;;;;;30.65;16.05;;;;;;;;;;5139511;27;20019;-93
2022/04/15 03:56:36;;;;;;;26.60;16.02;;;;;;;;;;5122171;27;20088;-94
2022/04/15 03:59:03;;;;;;;32.65;16.77;;;;;;;;;;5140148;27;20033;-94
2022/04/15 04:01:30;;;;;;;25.85;17.17;;;;;;;;;;5139968;27;20368;-93
2022/04/15 04:03:56;;;;;;;31.73;18.42;;;;;;;;;;5121783;27;20023;-94
2022/04/15 04:06:22;;;;;;;31.85;18.90;;;;;;;;;;5121466;27;20024;-93
2022/04/15 04:08:51;;;;;;;26.35;18.50;;;;;;;;;;5139450;27;20073;-94
2022/04/15 04:11:17;;;;;;;28.58;18.38;;;;;;;;;;5139248;27;20015;-93
2022/04/15 04:13:44;;;;;;;31.73;17.13;;;;;;;;;;5121641;27;20015;-93
2022/04/15 04:16:14;;;;;;;29.13;17.60;;;;;;;;;;5139497;27;20461;-92
2022/04/15 04:18:40;;;;;;;32.30;17.17;;;;;;;;;;5139404;27;20027;-94
2022/04/15 04:21:06;;;;;;;27.17;17.27;;;;;;;;;;5139522;27;20027;-95
2022/04/15 04:23:33;;;;;;;33.30;17.88;;;;;;;;;;5139243;27;20023;-93
2022/04/15 04:25:59;;;;;;;31.85;16.98;;;;;;;;;;5139800;27;20034;-93
2022/04/15 04:28:25;;;;;;;28.10;17.63;;;;;;;;;;5121255;27;20031;-94
2022/04/15 04:30:52;;;;;;;28.83;17.67;;;;;;;;;;5139349;27;20404;-94
2022/04/15 04:33:18;;;;;;;23.58;16.73;;;;;;;;;;5139433;27;20054;-96
2022/04/15 04:35:44;;;;;;;26.40;16.48;;;;;;;;;;5121189;27;20055;-95
2022/04/15 04:38:11;;;;;;;26.25;17.02;;;;;;;;;;5139894;27;20035;-94
2022/04/15 04:40:37;;;;;;;30.50;17.60;;;;;;;;;;5121199;27;20023;-94
2022/04/15 04:43:04;;;;;;;24.55;16.65;;;;;;;;;;5139150;27;20454;-94
2022/04/15 04:45:31;;;;;;;23.63;16.73;;;;;;;;;;5139388;27;20321;-94
2022/04/15 04:47:57;;;;;;;23.67;17.42;;;;;;;;;;5120695;27;20027;-94
2022/04/15 04:50:23;;;;;;;30.00;17.80;;;;;;;;;;5138814;27;20400;-94
2022/04/15 04:52:50;;;;;;;26.42;16.95;;;;;;;;;;5142383;27;20047;-95
2022/04/15 04:55:17;;;;;;;30.85;16.98;;;;;;;;;;5138904;27;20047;-94
2022/04/15 04:57:43;;;;;;;29.02;18.02;;;;;;;;;;5138687;27;20058;-94
2022/04/15 05:00:11;;;;;;;30.02;16.77;;;;;;;;;;5138896;27;20027;-93
2022/04/15 05:02:37;;;;;;;28.23;16.80;;;;;;;;;;5138811;27;20027;-93
2022/04/15 05:05:03;;;;;;;35.65;17.02;;;;;;;;;;5138697;27;20027;-93
2022/04/15 05:07:29;;;;;;;27.83;17.33;;;;;;;;;;5120272;27;20027;-93
2022/04/15 05:09:55;;;;;;;22.95;16.85;;;;;;;;;;5138679;27;20432;-93
2022/04/15 05:12:22;;;;;;;26.92;17.20;;;;;;;;;;5139021;28;20103;-93
2022/04/15 05:14:48;;;;;;;22.25;16.50;;;;;;;;;;5138658;28;20065;-93
2022/04/15 05:17:14;;;;;;;25.60;16.92;;;;;;;;;;5138698;27;20022;-93
2022/04/15 05:19:40;;;;;;;29.58;17.02;;;;;;;;;;5138581;27;20329;-93
2022/04/15 05:22:06;;;;;;;28.98;17.30;;;;;;;;;;5120949;27;20028;-93
2022/04/15 05:24:32;;;;;;;26.35;17.15;;;;;;;;;;5117851;28;20447;-93
2022/04/15 05:26:58;;;;;;;29.65;17.50;;;;;;;;;;5118061;28;20294;-94
2022/04/15 05:29:25;;;;;;;27.42;16.80;;;;;;;;;;5117874;28;20026;-92
2022/04/15 05:31:51;;;;;;;28.75;17.00;;;;;;;;;;5099910;28;20059;-94
2022/04/15 05:34:17;;;;;;;27.48;17.27;;;;;;;;;;5117738;28;20045;-94
2022/04/15 05:36:43;;;;;;;24.83;17.15;;;;;;;;;;5117693;28;20023;-94
2022/04/15 05:39:09;;;;;;;24.95;18.17;;;;;;;;;;5110841;28;20028;-92
2022/04/15 05:41:35;;;;;;;26.13;17.38;;;;;;;;;;5079714;28;20028;-93
2022/04/15 05:44:03;;;;;;;30.08;17.50;;;;;;;;;;5097353;28;20103;-93
2022/04/15 05:46:30;;;;;;;29.10;17.38;;;;;;;;;;5097415;28;20024;-91
2022/04/15 05:48:56;;;;;;;29.42;17.98;;;;;;;;;;5079343;28;20039;-91
2022/04/15 05:51:22;;;;;;;29.80;17.58;;;;;;;;;;5079548;28;20021;-92
2022/04/15 05:53:48;;;;;;;29.00;19.38;;;;;;;;;;5079596;28;20497;-94
2022/04/15 05:56:14;;;;;;;31.65;17.65;;;;;;;;;;5101488;28;20119;-93
2022/04/15 05:58:40;;;;;;;32.33;18.40;;;;;;;;;;5117485;28;20036;-94
2022/04/15 06:01:09;;;;;;;29.92;18.23;;;;;;;;;;5116854;28;20059;-93
2022/04/15 06:03:35;;;;;;;27.42;18.02;;;;;;;;;;5117373;28;20030;-92
2022/04/15 06:06:02;;;;;;;28.33;17.17;;;;;;;;;;5107450;28;20028;-92
2022/04/15 06:08:29;;;;;;;29.00;16.77;;;;;;;;;;5113805;28;20106;-94
2022/04/15 06:10:55;;;;;;;23.10;16.73;;;;;;;;;;5117567;28;20020;-93
2022/04/15 06:13:25;;;;;;;22.48;15.98;;;;;;;;;;5117558;28;20314;-94
2022/04/15 06:19:01;;;;;;;29.08;16.70;;;;;;;;;;5121546;28;20027;-93
2022/04/15 06:21:27;;;;;;;23.75;17.25;;;;;;;;;;5120963;28;20054;-93
2022/04/15 06:23:54;;;;;;;26.02;17.65;;;;;;;;;;5121259;28;20034;-94
2022/04/15 06:26:20;;;;;;;37.38;24.48;;;;;;;;;;5121266;28;20032;-93
2022/04/15 06:28:46;;;;;;;31.75;22.45;;;;;;;;;;5121341;28;20023;-93
2022/04/15 06:31:12;;;;;;;36.22;21.48;;;;;;;;;;5104553;28;20042;-94
2022/04/15 06:33:38;;;;;;;27.90;17.85;;;;;;;;;;5121001;28;20016;-95
2022/04/15 06:36:05;;;;;;;25.85;17.40;;;;;;;;;;5103177;28;20500;-94
2022/04/15 06:38:31;;;;;;;22.17;15.35;;;;;;;;;;5102931;28;20036;-94
2022/04/15 06:40:57;;;;;;;22.15;16.00;;;;;;;;;;5120722;28;20325;-94
2022/04/15 06:43:23;;;;;;;21.23;15.50;;;;;;;;;;5121159;28;20027;-94
2022/04/15 06:45:49;;;;;;;28.50;16.95;;;;;;;;;;5116416;27;20023;-94
2022/04/15 06:48:15;;;;;;;21.98;15.65;;;;;;;;;;5141249;27;20024;-95
2022/04/15 06:50:41;;;;;;;23.30;15.90;;;;;;;;;;5141290;27;20113;-94
2022/04/15 06:53:07;;;;;;;22.02;16.00;;;;;;;;;;5122727;27;20070;-94
2022/04/15 06:55:33;;;;;;;25.40;16.45;;;;;;;;;;5122357;27;20115;-94
2022/04/15 06:58:00;;;;;;;28.67;18.55;;;;;;;;;;5140849;27;20027;-95
2022/04/15 07:00:26;;;;;;;27.60;18.02;;;;;;;;;;5123125;27;20055;-94
2022/04/15 07:02:53;;;;;;;25.85;17.40;;;;;;;;;;5141077;27;20019;-95
2022/04/15 07:05:19;;;;;;;22.27;15.85;;;;;;;;;;5122835;27;20045;-94
2022/04/15 07:07:46;;;;;;;25.77;16.98;;;;;;;;;;5122855;27;20061;-93
2022/04/15 07:10:12;;;;;;;27.65;15.82;;;;;;;;;;5140672;27;20031;-93
2022/04/15 07:12:39;;;;;;;26.13;16.27;;;;;;;;;;5122750;27;20026;-93
2022/04/15 07:15:05;;;;;;;24.88;16.90;;;;;;;;;;5122652;27;20019;-93
2022/04/15 07:17:32;;;;;;;30.50;16.95;;;;;;;;;;5122529;27;20061;-93
2022/04/15 07:19:58;;;;;;;33.83;17.77;;;;;;;;;;5140658;27;20059;-94
2022/04/15 07:22:24;;;;;;;33.33;18.35;;;;;;;;;;5122589;27;20035;-94
2022/04/15 07:24:50;;;;;;;29.02;20.40;;;;;;;;;;5140855;27;20027;-94
2022/04/15 07:27:16;;;;;;;29.90;19.50;;;;;;;;;;5122828;27;20110;-94
2022/04/15 07:29:44;;;;;;;26.90;18.83;;;;;;;;;;5122228;27;20027;-94
2022/04/15 07:32:11;;;;;;;35.03;17.80;;;;;;;;;;5140316;27;20092;-94
2022/04/15 07:34:37;;;;;;;23.40;17.23;;;;;;;;;;5140320;27;20024;-94
2022/04/15 07:37:04;;;;;;;23.38;16.27;;;;;;;;;;5140556;27;20030;-95
2022/04/15 07:39:31;;;;;;;25.75;16.33;;;;;;;;;;5137420;22;20900;-94
2022/04/15 07:41:57;;;;;;;24.95;15.82;;;;;;;;;;5071586;22;20120;-95
2022/04/15 07:44:24;;;;;;;24.50;16.27;;;;;;;;;;5064361;28;20044;-95
2022/04/15 07:46:51;;;;;;;27.05;15.52;;;;;;;;;;5062642;28;20063;-92
2022/04/15 07:49:17;;;;;;;20.88;14.60;;;;;;;;;;5063247;28;20044;-95
2022/04/15 07:51:43;;;;;;;19.35;14.25;;;;;;;;;;5060789;28;20050;-93
2022/04/15 07:54:10;;;;;;;22.65;14.00;;;;;;;;;;5059622;22;20005;-93
2022/04/15 07:56:36;;;;;;;22.10;14.10;;;;;;;;;;5057897;28;20435;-95
2022/04/15 07:59:03;;;;;;;24.52;13.95;;;;;;;;;;5057847;28;20029;-95
2022/04/15 08:01:29;;;;;;;26.10;14.57;;;;;;;;;;5058614;28;20108;-96
2022/04/15 08:03:56;;;;;;;23.20;14.25;;;;;;;;;;5057668;28;20021;-96
2022/04/15 08:06:23;;;;;;;42.63;29.33;;;;;;;;;;5058760;28;20020;-93
2022/04/15 08:08:49;;;;;;;58.88;38.67;;;;;;;;;;5067600;28;20036;-94
2022/04/15 08:11:15;;;;;;;31.38;19.60;;;;;;;;;;5078681;28;20029;-94
2022/04/15 08:13:42;;;;;;;20.17;13.98;;;;;;;;;;5078395;28;20460;-94
2022/04/15 08:16:08;;;;;;;21.10;14.43;;;;;;;;;;5077577;28;20025;-94
2022/04/15 08:18:35;;;;;;;27.08;17.08;;;;;;;;;;5077471;28;20052;-93
2022/04/15 08:21:01;;;;;;;23.27;12.88;;;;;;;;;;5078143;28;20020;-94
2022/04/15 08:23:27;;;;;;;23.23;13.88;;;;;;;;;;5078216;28;20029;-94
2022/04/15 08:25:53;;;;;;;28.13;18.40;;;;;;;;;;5078379;28;20036;-95
2022/04/15 08:28:20;;;;;;;25.95;14.05;;;;;;;;;;5077314;28;20394;-95
2022/04/15 08:30:46;;;;;;;26.58;15.70;;;;;;;;;;5078967;28;20020;-93
2022/04/15 08:33:12;;;;;;;20.83;14.07;;;;;;;;;;5077181;28;20024;-96
2022/04/15 08:35:39;;;;;;;17.27;12.48;;;;;;;;;;5077240;28;20060;-95
2022/04/15 08:38:05;;;;;;;17.50;11.07;;;;;;;;;;5078014;28;20025;-93
2022/04/15 08:40:35;;;;;;;17.70;10.55;;;;;;;;;;5077655;28;20025;-94
2022/04/15 08:43:02;;;;;;;20.02;11.45;;;;;;;;;;5077748;28;20021;-95
2022/04/15 08:45:29;;;;;;;81.43;39.88;;;;;;;;;;5078071;28;20028;-95
2022/04/15 08:47:57;;;;;;;45.65;30.27;;;;;;;;;;5078434;28;20016;-96
2022/04/15 08:50:24;;;;;;;24.15;16.00;;;;;;;;;;5078031;28;20038;-95
2022/04/15 08:52:57;;;;;;;13.70;8.77;;;;;;;;;;5077641;28;20024;-93
2022/04/15 08:55:24;;;;;;;14.70;8.10;;;;;;;;;;5076650;28;20361;-94
2022/04/15 08:57:51;;;;;;;11.27;6.40;;;;;;;;;;5076481;28;20040;-94
2022/04/15 09:00:19;;;;;;;13.23;7.10;;;;;;;;;;5077705;28;20033;-95
2022/04/15 09:02:45;;;;;;;10.60;6.60;;;;;;;;;;5077582;28;20313;-93
2022/04/15 09:05:12;;;;;;;12.73;6.82;;;;;;;;;;5076619;28;20043;-94
2022/04/15 09:07:39;;;;;;;12.63;7.07;;;;;;;;;;5077587;28;20150;-93
2022/04/15 09:10:07;;;;;;;9.90;5.97;;;;;;;;;;5076355;28;20028;-94
2022/04/15 09:12:37;;;;;;;8.57;4.40;;;;;;;;;;5077029;28;20098;-94
2022/04/15 09:15:06;;;;;;;7.40;4.60;;;;;;;;;;5077626;28;20040;-94
2022/04/15 09:17:36;;;;;;;17.98;9.23;;;;;;;;;;5077412;28;20099;-93
2022/04/15 09:20:03;;;;;;;17.00;9.75;;;;;;;;;;5076758;28;20024;-95
2022/04/15 09:22:30;;;;;;;18.52;9.15;;;;;;;;;;5077687;28;20031;-94
2022/04/15 09:24:56;;;;;;;13.77;9.68;;;;;;;;;;5077700;28;20033;-95
2022/04/15 09:27:23;;;;;;;19.75;13.90;;;;;;;;;;5078162;28;20080;-94
2022/04/15 09:29:50;;;;;;;15.50;9.00;;;;;;;;;;5077536;28;20025;-94
2022/04/15 09:32:17;;;;;;;14.77;8.75;;;;;;;;;;5077370;28;20031;-94
2022/04/15 09:34:52;;;;;;;13.88;8.02;;;;;;;;;;5076346;28;20356;-94
2022/04/15 09:37:19;;;;;;;19.40;8.00;;;;;;;;;;5076630;28;20021;-91
2022/04/15 09:40:07;;;;;;;15.77;7.22;;;;;;;;;;5079197;28;20032;-93
2022/04/15 09:42:36;;;;;;;9.43;5.55;;;;;;;;;;5077384;28;20037;-93
2022/04/15 09:45:41;;;;;;;8.68;5.68;;;;;;;;;;5077270;28;20410;-94
2022/04/15 09:48:11;;;;;;;10.73;5.20;;;;;;;;;;5035725;28;20030;-92
2022/04/15 09:50:39;;;;;;;10.07;5.68;;;;;;;;;;5036177;28;20029;-94
2022/04/15 09:53:11;;;;;;;9.75;5.25;;;;;;;;;;5023190;28;20061;-94
2022/04/15 09:55:41;;;;;;;9.50;6.35;;;;;;;;;;5039495;28;20057;-93
2022/04/15 09:58:09;;;;;;;14.07;6.38;;;;;;;;;;5039187;28;20041;-93
2022/04/15 10:00:36;;;;;;;10.10;5.50;;;;;;;;;;5039088;28;20112;-94
2022/04/15 10:03:04;;;;;;;9.57;5.68;;;;;;;;;;5022532;28;20113;-96
2022/04/15 10:05:31;;;;;;;10.30;5.30;;;;;;;;;;5022622;28;20116;-94
2022/04/15 10:07:57;;;;;;;9.45;5.47;;;;;;;;;;5039036;28;20028;-94
2022/04/15 10:10:24;;;;;;;10.63;5.63;;;;;;;;;;5022365;28;20087;-94
2022/04/15 10:12:50;;;;;;;11.20;5.15;;;;;;;;;;5039292;28;20029;-93
2022/04/15 10:15:16;;;;;;;9.68;5.28;;;;;;;;;;5039322;28;20048;-94
2022/04/15 10:17:43;;;;;;;11.30;5.45;;;;;;;;;;5040800;28;20037;-96
2022/04/15 10:20:09;;;;;;;9.35;4.82;;;;;;;;;;5080908;28;20021;-94
2022/04/15 10:22:37;;;;;;;8.13;4.90;;;;;;;;;;5080217;28;20024;-94
2022/04/15 10:25:05;;;;;;;10.35;5.43;;;;;;;;;;5080709;28;20403;-93
2022/04/15 10:27:31;;;;;;;8.73;4.68;;;;;;;;;;5079900;28;20029;-94
2022/04/15 10:30:19;;;;;;;10.43;4.60;;;;;;;;;;5080790;28;20052;-94
2022/04/15 10:32:48;;;;;;;10.07;4.55;;;;;;;;;;5080773;28;20016;-94
2022/04/15 10:35:22;;;;;;;9.13;4.35;;;;;;;;;;5080293;28;20437;-95
2022/04/15 10:38:22;;;;;;;7.40;4.75;;;;;;;;;;5079400;28;20028;-95
2022/04/15 10:40:50;;;;;;;8.30;4.63;;;;;;;;;;5038718;28;20506;-95
2022/04/15 10:43:23;;;;;;;8.07;4.50;;;;;;;;;;5038587;28;20076;-95
2022/04/15 10:48:53;;;;;;;6.15;3.90;;;;;;;;;;5038652;28;20442;-94
2022/04/15 10:51:25;;;;;;;11.43;4.32;;;;;;;;;;5022043;28;20455;-94
2022/04/15 10:53:52;;;;;;;6.85;4.45;;;;;;;;;;5021866;28;20061;-94
2022/04/15 10:56:20;;;;;;;9.13;4.80;;;;;;;;;;5024357;28;20037;-93
2022/04/15 11:01:32;;;;;;;7.20;4.68;;;;;;;;;;5018581;28;20077;-95
2022/04/15 11:04:05;;;;;;;9.75;4.68;;;;;;;;;;5018361;28;20045;-94
2022/04/15 11:06:31;;;;;;;11.05;4.95;;;;;;;;;;5018394;28;20427;-95
2022/04/15 11:08:58;;;;;;;7.93;4.20;;;;;;;;;;5001880;28;20084;-95
2022/04/15 11:11:34;;;;;;;7.90;4.30;;;;;;;;;;5018519;28;20032;-93
2022/04/15 11:14:03;;;;;;;6.97;4.28;;;;;;;;;;5002023;28;20030;-94
2022/04/15 11:16:57;;;;;;;6.07;4.47;;;;;;;;;;5032741;28;20040;-94
2022/04/15 11:19:24;;;;;;;11.75;4.22;;;;;;;;;;5059608;28;20068;-94
2022/04/15 11:21:51;;;;;;;10.68;4.72;;;;;;;;;;5058470;28;20084;-95
2022/04/15 11:24:38;;;;;;;6.72;4.15;;;;;;;;;;5058935;28;20028;-96
2022/04/15 11:27:04;;;;;;;9.73;4.70;;;;;;;;;;5059619;28;20057;-94
2022/04/15 11:29:32;;;;;;;6.70;4.20;;;;;;;;;;5059349;28;20048;-95
2022/04/15 11:31:58;;;;;;;7.47;4.28;;;;;;;;;;5058428;28;20028;-93
2022/04/15 11:34:25;;;;;;;7.05;4.32;;;;;;;;;;5059604;28;20069;-95
2022/04/15 11:36:56;;;;;;;9.38;4.40;;;;;;;;;;5058238;28;20064;-95
2022/04/15 11:39:22;;;;;;;;;;;;;;;;;;5058674;28;20111;-95
2022/04/15 11:41:57;;;;;;;9.50;4.45;;;;;;;;;;5059547;28;20318;-96
2022/04/15 11:44:28;;;;;;;9.10;4.10;;;;;;;;;;5058975;28;20112;-95
2022/04/15 11:46:54;;;;;;;6.65;4.43;;;;;;;;;;5058971;28;20108;-96
2022/04/15 11:49:21;;;;;;;9.60;4.93;;;;;;;;;;5059310;28;20033;-94
2022/04/15 11:51:49;;;;;;;10.52;4.03;;;;;;;;;;5057964;28;20021;-94
2022/04/15 11:54:15;;;;;;;10.95;4.10;;;;;;;;;;5058015;28;20444;-94
2022/04/15 11:56:42;;;;;;;6.30;4.30;;;;;;;;;;5057815;28;20049;-96
2022/04/15 11:59:10;;;;;;;13.00;8.30;;;;;;;;;;5058466;28;20035;-96
